createdAt,value
2023-03-02T00:02:22.286Z,31.02
2023-03-02T00:05:29.930Z,32.75
2023-03-02T00:08:35.178Z,31.75
2023-03-02T00:11:39.994Z,31.65
2023-03-02T00:14:45.136Z,32.35
2023-03-02T00:17:49.724Z,30.85
2023-03-02T00:20:54.475Z,28.75
2023-03-02T00:23:59.223Z,37.58
2023-03-02T00:27:03.973Z,47.97
2023-03-02T00:30:10.400Z,46.78
2023-03-02T00:33:15.147Z,44.78
2023-03-02T00:36:22.345Z,48.45
2023-03-02T00:39:26.988Z,45.13
2023-03-02T00:42:31.378Z,47.22
2023-03-02T00:45:35.668Z,46.75
2023-03-02T00:48:40.852Z,44.97
2023-03-02T00:51:45.636Z,41.97
2023-03-02T00:54:50.097Z,44.80
2023-03-02T00:57:55.528Z,49.10
2023-03-02T01:01:13.850Z,51.50
2023-03-02T01:04:29.778Z,46.53
2023-03-02T01:07:34.482Z,48.67
2023-03-02T01:13:36.268Z,47.58
2023-03-02T01:16:41.450Z,46.33
2023-03-02T01:19:45.957Z,46.50
2023-03-02T01:22:50.896Z,47.97
2023-03-02T01:25:55.647Z,55.47
2023-03-02T01:29:00.550Z,44.80
2023-03-02T01:32:05.670Z,42.92
2023-03-02T01:35:11.014Z,46.33
2023-03-02T01:38:15.493Z,45.25
2023-03-02T01:41:20.161Z,43.42
2023-03-02T01:44:40.668Z,40.20
2023-03-02T01:47:45.077Z,50.42
2023-03-02T01:50:55.275Z,48.63
2023-03-02T01:54:09.934Z,46.25
2023-03-02T01:57:14.700Z,50.85
2023-03-02T02:00:28.519Z,47.72
2023-03-02T02:03:34.153Z,44.78
2023-03-02T02:06:42.850Z,46.42
2023-03-02T02:09:51.629Z,47.03
2023-03-02T02:12:56.417Z,49.50
2023-03-02T02:16:01.264Z,39.40
2023-03-02T02:19:23.564Z,47.10
2023-03-02T02:22:55.873Z,40.55
2023-03-02T02:26:18.120Z,47.28
2023-03-02T02:29:33.112Z,48.72
2023-03-02T02:32:40.337Z,44.85
2023-03-02T02:35:47.841Z,50.03
2023-03-02T02:38:55.795Z,43.17
2023-03-02T02:42:06.152Z,44.40
2023-03-02T02:45:31.328Z,49.53
2023-03-02T02:48:36.253Z,49.13
2023-03-02T02:51:41.062Z,44.17
2023-03-02T02:54:50.104Z,48.58
2023-03-02T02:57:59.438Z,38.40
2023-03-02T03:01:04.874Z,42.13
2023-03-02T03:04:18.141Z,48.55
2023-03-02T03:07:25.388Z,45.03
2023-03-02T03:10:35.919Z,41.25
2023-03-02T03:13:42.692Z,45.92
2023-03-02T03:16:49.956Z,50.58
2023-03-02T03:19:54.370Z,49.33
2023-03-02T03:23:00.789Z,41.83
2023-03-02T03:26:07.754Z,48.97
2023-03-02T03:29:15.007Z,40.00
2023-03-02T03:32:21.351Z,44.30
2023-03-02T03:35:28.997Z,38.88
2023-03-02T03:38:33.665Z,43.17
2023-03-02T03:41:38.846Z,44.88
2023-03-02T03:44:44.485Z,53.92
2023-03-02T03:47:49.256Z,48.05
2023-03-02T03:50:54.295Z,49.58
2023-03-02T03:54:01.598Z,45.40
2023-03-02T03:57:12.500Z,50.35
2023-03-02T04:00:18.523Z,52.65
2023-03-02T04:03:39.140Z,47.33
2023-03-02T04:06:44.573Z,46.17
2023-03-02T04:09:49.647Z,56.67
2023-03-02T04:12:55.062Z,55.20
2023-03-02T04:15:59.348Z,58.85
2023-03-02T04:19:09.374Z,51.00
2023-03-02T04:22:16.866Z,49.97
2023-03-02T04:25:26.367Z,51.35
2023-03-02T04:28:35.551Z,47.78
2023-03-02T04:31:40.736Z,47.22
2023-03-02T04:34:45.282Z,51.08
2023-03-02T04:37:49.603Z,46.47
2023-03-02T04:41:03.894Z,39.70
2023-03-02T04:44:10.518Z,53.95
2023-03-02T04:47:15.650Z,51.08
2023-03-02T04:50:20.675Z,46.40
2023-03-02T04:53:25.114Z,43.40
2023-03-02T04:56:30.872Z,56.60
2023-03-02T04:59:35.956Z,47.85
2023-03-02T05:02:42.318Z,47.10
2023-03-02T05:05:47.025Z,43.03
2023-03-02T05:08:53.361Z,43.72
2023-03-02T05:12:00.655Z,49.30
2023-03-02T05:15:06.054Z,51.20
2023-03-02T05:18:12.776Z,45.28
2023-03-02T05:21:18.936Z,53.42
2023-03-02T05:24:23.576Z,48.33
2023-03-02T05:27:28.318Z,48.20
2023-03-02T05:30:37.564Z,45.78
2023-03-02T05:33:42.607Z,50.83
2023-03-02T05:36:47.253Z,50.10
2023-03-02T05:39:51.854Z,51.05
2023-03-02T05:42:56.681Z,47.90
2023-03-02T05:46:01.392Z,52.03
2023-03-02T05:49:06.205Z,51.75
2023-03-02T05:52:11.032Z,52.35
2023-03-02T05:55:17.222Z,56.17
2023-03-02T05:58:22.053Z,55.58
2023-03-02T06:01:26.535Z,58.78
2023-03-02T06:04:31.336Z,49.95
2023-03-02T06:07:36.365Z,46.25
2023-03-02T06:10:41.196Z,49.47
2023-03-02T06:13:46.176Z,50.10
2023-03-02T06:16:50.874Z,45.53
2023-03-02T06:19:55.304Z,50.28
2023-03-02T06:23:00.129Z,49.80
2023-03-02T06:26:12.548Z,51.63
2023-03-02T06:29:16.824Z,52.30
2023-03-02T06:32:21.727Z,53.30
2023-03-02T06:35:26.639Z,49.88
2023-03-02T06:38:31.333Z,55.70
2023-03-02T06:41:35.583Z,51.88
2023-03-02T06:44:39.832Z,50.65
2023-03-02T06:47:44.330Z,48.33
2023-03-02T06:50:48.980Z,51.40
2023-03-02T06:53:53.282Z,53.10
2023-03-02T06:56:57.844Z,46.58
2023-03-02T07:00:11.533Z,51.63
2023-03-02T07:03:17.386Z,47.47
2023-03-02T07:06:22.071Z,42.05
2023-03-02T07:09:26.891Z,47.13
2023-03-02T07:12:31.619Z,48.28
2023-03-02T07:15:39.305Z,52.50
2023-03-02T07:18:44.074Z,55.13
2023-03-02T07:21:49.100Z,50.80
2023-03-02T07:24:54.101Z,50.97
2023-03-02T07:27:59.389Z,49.30
2023-03-02T07:31:04.097Z,49.25
2023-03-02T07:34:08.754Z,53.60
2023-03-02T07:37:13.655Z,45.40
2023-03-02T07:40:18.791Z,46.80
2023-03-02T07:43:28.682Z,50.58
2023-03-02T07:46:33.268Z,38.28
2023-03-02T07:49:38.210Z,45.13
2023-03-02T07:52:43.098Z,37.75
2023-03-02T07:55:47.840Z,36.22
2023-03-02T07:58:52.640Z,38.30
2023-03-02T08:01:58.140Z,34.60
2023-03-02T08:05:02.831Z,35.50
2023-03-02T08:08:07.685Z,30.88
2023-03-02T08:11:16.861Z,29.10
2023-03-02T08:14:21.641Z,27.77
2023-03-02T08:17:26.400Z,29.60
2023-03-02T08:20:30.961Z,31.40
2023-03-02T08:23:35.695Z,31.13
2023-03-02T08:26:40.523Z,33.38
2023-03-02T08:29:45.080Z,29.17
2023-03-02T08:32:49.982Z,27.83
2023-03-02T08:36:00.309Z,28.98
2023-03-02T08:39:04.873Z,24.80
2023-03-02T08:42:09.575Z,30.50
2023-03-02T08:45:14.444Z,29.83
2023-03-02T08:48:20.717Z,28.15
2023-03-02T08:51:26.571Z,26.00
2023-03-02T08:54:34.322Z,26.92
2023-03-02T08:57:41.634Z,28.02
2023-03-02T09:00:46.729Z,26.73
2023-03-02T09:03:52.597Z,27.30
2023-03-02T09:06:57.208Z,26.05
2023-03-02T09:10:02.114Z,23.70
2023-03-02T09:13:08.582Z,27.00
2023-03-02T09:16:14.971Z,25.48
2023-03-02T09:19:20.286Z,25.50
2023-03-02T09:22:25.236Z,28.55
2023-03-02T09:25:30.220Z,22.25
2023-03-02T09:28:36.225Z,26.90
2023-03-02T09:31:41.094Z,23.63
2023-03-02T09:34:45.943Z,23.17
2023-03-02T09:37:50.832Z,25.90
2023-03-02T09:41:21.352Z,22.73
2023-03-02T09:44:38.739Z,23.92
2023-03-02T09:48:08.894Z,23.83
2023-03-02T09:51:33.152Z,23.35
2023-03-02T09:54:40.503Z,20.58
2023-03-02T09:57:46.962Z,21.63
2023-03-02T10:00:52.485Z,21.27
2023-03-02T10:04:21.388Z,21.25
2023-03-02T10:07:34.152Z,20.83
2023-03-02T10:11:23.702Z,19.48
2023-03-02T10:14:39.219Z,23.20
2023-03-02T10:18:09.351Z,17.98
2023-03-02T10:21:50.862Z,19.98
2023-03-02T10:25:20.790Z,20.63
2023-03-02T10:28:34.261Z,18.15
2023-03-02T10:31:43.374Z,22.27
2023-03-02T10:34:50.447Z,18.23
2023-03-02T10:38:20.892Z,20.63
2023-03-02T10:41:44.506Z,20.85
2023-03-02T10:44:56.067Z,19.95
2023-03-02T10:48:06.042Z,19.88
2023-03-02T10:51:27.388Z,15.88
2023-03-02T10:54:34.593Z,16.42
2023-03-02T10:57:45.324Z,15.55
2023-03-02T11:01:18.937Z,16.50
2023-03-02T11:04:23.730Z,21.33
2023-03-02T11:07:29.628Z,19.80
2023-03-02T11:11:01.228Z,16.25
2023-03-02T11:14:16.621Z,16.55
2023-03-02T11:17:42.081Z,15.68
2023-03-02T11:20:50.746Z,16.83
2023-03-02T11:24:11.848Z,15.90
2023-03-02T11:27:27.870Z,20.27
2023-03-02T11:30:36.850Z,19.42
2023-03-02T11:34:17.375Z,17.58
2023-03-02T11:37:25.914Z,17.77
2023-03-02T11:40:33.393Z,17.48
2023-03-02T11:43:38.043Z,14.85
2023-03-02T11:46:48.829Z,15.80
2023-03-02T11:50:00.459Z,14.68
2023-03-02T11:53:13.749Z,15.18
2023-03-02T11:56:18.259Z,16.90
2023-03-02T11:59:26.530Z,15.70
2023-03-02T12:02:32.225Z,15.68
2023-03-02T12:05:40.031Z,18.35
2023-03-02T12:08:48.501Z,14.73
2023-03-02T12:12:10.783Z,17.63
2023-03-02T12:15:47.662Z,19.90
2023-03-02T12:18:53.310Z,15.50
2023-03-02T12:22:10.475Z,15.55
2023-03-02T12:25:21.194Z,12.10
2023-03-02T12:28:44.278Z,18.63
2023-03-02T12:31:56.663Z,21.93
2023-03-02T12:35:07.166Z,17.95
2023-03-02T12:38:31.278Z,20.08
2023-03-02T12:42:21.177Z,17.90
2023-03-02T12:46:08.284Z,19.73
2023-03-02T12:49:27.834Z,18.23
2023-03-02T12:52:35.995Z,19.33
2023-03-02T12:55:41.409Z,19.15
2023-03-02T12:58:50.932Z,19.25
2023-03-02T13:02:21.339Z,18.00
2023-03-02T13:05:32.227Z,18.08
2023-03-02T13:08:37.460Z,18.17
2023-03-02T13:11:44.388Z,18.77
2023-03-02T13:14:58.564Z,15.52
2023-03-02T13:18:03.422Z,15.80
2023-03-02T13:21:14.892Z,18.52
2023-03-02T13:24:45.450Z,19.55
2023-03-02T13:28:00.827Z,17.35
2023-03-02T13:31:17.375Z,15.55
2023-03-02T13:34:26.778Z,16.15
2023-03-02T13:37:43.926Z,15.70
2023-03-02T13:40:55.069Z,14.05
2023-03-02T13:44:19.933Z,15.43
2023-03-02T13:47:25.287Z,14.43
2023-03-02T13:50:32.565Z,16.15
2023-03-02T13:53:38.155Z,15.55
2023-03-02T13:56:44.011Z,16.60
2023-03-02T13:59:49.208Z,13.95
2023-03-02T14:02:53.722Z,18.10
2023-03-02T14:06:00.468Z,15.43
2023-03-02T14:09:05.831Z,16.17
2023-03-02T14:12:31.689Z,16.15
2023-03-02T14:15:42.954Z,16.45
2023-03-02T14:18:49.781Z,17.90
2023-03-02T14:21:54.665Z,15.45
2023-03-02T14:24:59.466Z,16.77
2023-03-02T14:28:04.692Z,17.52
2023-03-02T14:31:10.700Z,16.08
2023-03-02T14:34:16.968Z,16.00
2023-03-02T14:37:27.670Z,16.33
2023-03-02T14:40:33.638Z,16.33
2023-03-02T14:43:38.325Z,15.48
2023-03-02T14:46:43.371Z,16.20
2023-03-02T14:49:49.365Z,13.95
2023-03-02T14:52:57.752Z,14.50
2023-03-02T14:56:02.603Z,15.65
2023-03-02T14:59:14.279Z,13.93
2023-03-02T15:02:25.785Z,18.30
2023-03-02T15:05:32.060Z,17.17
2023-03-02T15:08:37.446Z,14.63
2023-03-02T15:11:41.808Z,14.52
2023-03-02T15:14:46.805Z,15.00
2023-03-02T15:17:51.877Z,14.30
2023-03-02T15:20:56.480Z,17.08
2023-03-02T15:24:01.590Z,16.55
2023-03-02T15:27:06.292Z,16.33
2023-03-02T15:30:12.328Z,15.60
2023-03-02T15:33:17.008Z,18.05
2023-03-02T15:36:23.368Z,15.73
2023-03-02T15:39:28.095Z,16.13
2023-03-02T15:42:33.013Z,16.83
2023-03-02T15:45:37.977Z,15.30
2023-03-02T15:48:42.519Z,16.15
2023-03-02T15:51:47.154Z,13.25
2023-03-02T15:54:52.074Z,13.07
2023-03-02T15:58:00.068Z,11.70
2023-03-02T16:01:09.635Z,13.13
2023-03-02T16:04:14.599Z,14.48
2023-03-02T16:07:19.681Z,15.52
2023-03-02T16:10:26.795Z,14.02
2023-03-02T16:13:31.721Z,14.63
2023-03-02T16:16:36.829Z,15.15
2023-03-02T16:19:41.625Z,16.10
2023-03-02T16:22:46.281Z,14.35
2023-03-02T16:25:52.401Z,13.65
2023-03-02T16:28:56.904Z,17.23
2023-03-02T16:32:02.198Z,16.58
2023-03-02T16:35:09.404Z,16.27
2023-03-02T16:38:14.330Z,13.43
2023-03-02T16:41:22.689Z,15.45
2023-03-02T16:44:28.876Z,17.50
2023-03-02T16:47:33.153Z,15.25
2023-03-02T16:50:37.982Z,15.80
2023-03-02T16:53:43.180Z,15.82
2023-03-02T16:56:47.816Z,17.23
2023-03-02T16:59:52.688Z,18.38
2023-03-02T17:02:57.554Z,15.63
2023-03-02T17:06:02.682Z,16.02
2023-03-02T17:09:07.321Z,16.25
2023-03-02T17:12:12.178Z,18.38
2023-03-02T17:15:17.232Z,19.13
2023-03-02T17:18:22.354Z,18.73
2023-03-02T17:21:27.046Z,18.55
2023-03-02T17:24:35.460Z,17.25
2023-03-02T17:27:40.339Z,15.25
2023-03-02T17:30:45.655Z,17.50
2023-03-02T17:33:50.447Z,18.38
2023-03-02T17:36:55.494Z,21.52
2023-03-02T17:40:00.752Z,20.92
2023-03-02T17:43:05.546Z,25.35
2023-03-02T17:46:21.345Z,32.95
2023-03-02T17:49:26.094Z,25.40
2023-03-02T17:52:30.818Z,22.52
2023-03-02T17:55:35.450Z,24.60
2023-03-02T17:58:45.163Z,27.17
2023-03-02T18:01:50.310Z,26.88
2023-03-02T18:04:55.125Z,23.02
2023-03-02T18:07:59.402Z,25.40
2023-03-02T18:11:05.912Z,25.92
2023-03-02T18:14:20.457Z,21.95
2023-03-02T18:17:25.504Z,24.45
2023-03-02T18:20:30.473Z,27.08
2023-03-02T18:23:34.956Z,27.20
2023-03-02T18:26:39.505Z,28.30
2023-03-02T18:29:44.563Z,27.27
2023-03-02T18:32:49.851Z,29.33
2023-03-02T18:35:57.402Z,25.67
2023-03-02T18:39:03.350Z,24.73
2023-03-02T18:42:08.268Z,23.73
2023-03-02T18:45:25.462Z,23.30
2023-03-02T18:48:30.656Z,21.33
2023-03-02T18:51:35.162Z,25.55
2023-03-02T18:54:40.177Z,23.27
2023-03-02T18:57:45.290Z,23.55
2023-03-02T19:00:49.853Z,21.35
2023-03-02T19:03:56.932Z,25.00
2023-03-02T19:07:02.959Z,24.60
2023-03-02T19:10:08.436Z,22.58
2023-03-02T19:13:13.230Z,23.65
2023-03-02T19:16:18.686Z,22.63
2023-03-02T19:19:23.636Z,22.45
2023-03-02T19:22:28.343Z,20.92
2023-03-02T19:25:33.056Z,19.80
2023-03-02T19:28:39.955Z,20.88
2023-03-02T19:31:44.560Z,19.67
2023-03-02T19:34:49.157Z,20.88
2023-03-02T19:37:54.072Z,19.80
2023-03-02T19:41:01.546Z,22.58
2023-03-02T19:44:07.349Z,20.80
2023-03-02T19:47:11.900Z,15.88
2023-03-02T19:50:18.755Z,20.42
2023-03-02T19:53:23.344Z,21.58
2023-03-02T19:56:33.120Z,18.65
2023-03-02T19:59:39.648Z,20.65
2023-03-02T20:02:45.162Z,21.35
2023-03-02T20:05:50.395Z,22.45
2023-03-02T20:08:57.778Z,20.02
2023-03-02T20:12:02.640Z,18.98
2023-03-02T20:15:07.743Z,20.45
2023-03-02T20:18:19.420Z,24.67
2023-03-02T20:21:27.226Z,23.63
2023-03-02T20:24:31.976Z,22.33
2023-03-02T20:27:36.486Z,21.17
2023-03-02T20:31:06.196Z,18.77
2023-03-02T20:34:15.955Z,23.45
2023-03-02T20:37:22.555Z,23.10
2023-03-02T20:40:28.127Z,24.95
2023-03-02T20:43:33.476Z,23.63
2023-03-02T20:46:44.676Z,24.48
2023-03-02T20:49:50.127Z,23.33
2023-03-02T20:52:54.771Z,23.95
2023-03-02T20:55:59.641Z,22.90
2023-03-02T20:59:04.487Z,17.98
2023-03-02T21:02:09.007Z,24.23
2023-03-02T21:05:14.553Z,20.35
2023-03-02T21:08:18.971Z,19.83
2023-03-02T21:11:23.944Z,19.25
2023-03-02T21:14:30.346Z,22.17
2023-03-02T21:17:35.586Z,21.50
2023-03-02T21:20:40.676Z,21.17
2023-03-02T21:23:47.035Z,20.77
2023-03-02T21:26:53.580Z,21.80
2023-03-02T21:29:58.268Z,21.42
2023-03-02T21:33:03.678Z,21.02
2023-03-02T21:36:16.548Z,21.40
2023-03-02T21:39:23.697Z,21.00
2023-03-02T21:42:28.313Z,21.45
2023-03-02T21:45:34.954Z,20.55
2023-03-02T21:48:40.162Z,23.60
2023-03-02T21:51:47.067Z,24.02
2023-03-02T21:54:53.893Z,24.10
2023-03-02T21:57:59.394Z,20.77
2023-03-02T22:01:04.236Z,18.20
2023-03-02T22:04:08.646Z,23.00
2023-03-02T22:07:12.958Z,22.13
2023-03-02T22:10:43.894Z,19.95
2023-03-02T22:13:50.823Z,25.30
2023-03-02T22:16:55.412Z,25.83
2023-03-02T22:20:00.015Z,24.98
2023-03-02T22:23:14.324Z,23.48
2023-03-02T22:32:46.238Z,26.48
2023-03-02T22:35:54.206Z,26.27
2023-03-02T22:39:05.853Z,27.10
2023-03-02T22:42:20.272Z,25.85
2023-03-02T22:45:25.187Z,25.20
2023-03-02T22:48:29.915Z,27.52
2023-03-02T22:51:34.686Z,30.73
2023-03-02T22:54:39.437Z,25.42
2023-03-02T22:57:44.210Z,29.15
2023-03-02T23:00:49.301Z,27.60
2023-03-02T23:04:07.824Z,25.10
2023-03-02T23:07:21.645Z,23.98
2023-03-02T23:17:02.005Z,22.13
2023-03-02T23:20:12.351Z,26.52
2023-03-02T23:23:17.866Z,34.80
2023-03-02T23:26:22.623Z,32.60
2023-03-02T23:29:26.901Z,32.78
2023-03-02T23:32:31.553Z,31.23
2023-03-02T23:35:36.257Z,27.58
2023-03-02T23:38:41.706Z,27.75
2023-03-02T23:41:46.603Z,32.53
2023-03-02T23:44:51.670Z,32.40
2023-03-02T23:47:57.617Z,30.70
2023-03-02T23:51:02.241Z,27.02
2023-03-02T23:54:07.725Z,23.50
2023-03-02T23:57:12.591Z,28.67
